sensor_id;sensor_type;location;lat;lon;timestamp;P1;durP1;ratioP1;P2;durP2;ratioP2
69053;SDS011;56125;52.242;4.756;2024-03-08T00:04:35;12.40;;;5.82;;
69053;SDS011;56125;52.242;4.756;2024-03-08T00:09:36;8.37;;;5.20;;
69053;SDS011;56125;52.242;4.756;2024-03-08T00:14:37;8.55;;;5.53;;
69053;SDS011;56125;52.242;4.756;2024-03-08T00:19:38;9.53;;;5.60;;
69053;SDS011;56125;52.242;4.756;2024-03-08T00:24:40;8.85;;;5.53;;
69053;SDS011;56125;52.242;4.756;2024-03-08T00:29:41;8.93;;;5.47;;
69053;SDS011;56125;52.242;4.756;2024-03-08T00:34:42;10.02;;;5.88;;
69053;SDS011;56125;52.242;4.756;2024-03-08T00:39:43;11.43;;;5.53;;
69053;SDS011;56125;52.242;4.756;2024-03-08T00:44:44;10.25;;;5.80;;
69053;SDS011;56125;52.242;4.756;2024-03-08T00:49:46;10.80;;;6.00;;
69053;SDS011;56125;52.242;4.756;2024-03-08T00:54:47;7.50;;;4.75;;
69053;SDS011;56125;52.242;4.756;2024-03-08T00:59:48;10.37;;;5.30;;
69053;SDS011;56125;52.242;4.756;2024-03-08T01:04:49;9.80;;;5.03;;
69053;SDS011;56125;52.242;4.756;2024-03-08T01:09:50;12.10;;;5.90;;
69053;SDS011;56125;52.242;4.756;2024-03-08T01:14:51;10.05;;;5.55;;
69053;SDS011;56125;52.242;4.756;2024-03-08T01:19:52;11.53;;;5.50;;
69053;SDS011;56125;52.242;4.756;2024-03-08T01:24:54;9.27;;;5.68;;
69053;SDS011;56125;52.242;4.756;2024-03-08T01:29:55;11.97;;;5.37;;
69053;SDS011;56125;52.242;4.756;2024-03-08T01:34:56;9.52;;;5.13;;
69053;SDS011;56125;52.242;4.756;2024-03-08T01:39:57;9.27;;;5.13;;
69053;SDS011;56125;52.242;4.756;2024-03-08T01:44:58;10.85;;;5.72;;
69053;SDS011;56125;52.242;4.756;2024-03-08T01:49:59;9.17;;;5.47;;
69053;SDS011;56125;52.242;4.756;2024-03-08T01:55:04;9.10;;;5.15;;
69053;SDS011;56125;52.242;4.756;2024-03-08T02:00:07;8.60;;;5.40;;
69053;SDS011;56125;52.242;4.756;2024-03-08T02:05:10;8.80;;;5.32;;
69053;SDS011;56125;52.242;4.756;2024-03-08T02:10:11;8.23;;;5.27;;
69053;SDS011;56125;52.242;4.756;2024-03-08T02:15:13;9.05;;;5.18;;
69053;SDS011;56125;52.242;4.756;2024-03-08T02:20:14;8.13;;;4.97;;
69053;SDS011;56125;52.242;4.756;2024-03-08T02:25:15;8.65;;;5.20;;
69053;SDS011;56125;52.242;4.756;2024-03-08T02:30:16;8.20;;;4.93;;
69053;SDS011;56125;52.242;4.756;2024-03-08T02:35:18;8.95;;;5.70;;
69053;SDS011;56125;52.242;4.756;2024-03-08T02:40:19;10.70;;;5.27;;
69053;SDS011;56125;52.242;4.756;2024-03-08T02:45:20;10.20;;;5.80;;
69053;SDS011;56125;52.242;4.756;2024-03-08T02:50:21;12.97;;;5.33;;
69053;SDS011;56125;52.242;4.756;2024-03-08T02:55:22;9.40;;;5.20;;
69053;SDS011;56125;52.242;4.756;2024-03-08T03:00:26;10.00;;;5.70;;
69053;SDS011;56125;52.242;4.756;2024-03-08T03:05:28;9.80;;;5.47;;
69053;SDS011;56125;52.242;4.756;2024-03-08T03:10:30;7.90;;;5.63;;
69053;SDS011;56125;52.242;4.756;2024-03-08T03:15:31;10.50;;;5.22;;
69053;SDS011;56125;52.242;4.756;2024-03-08T03:20:34;11.77;;;6.03;;
69053;SDS011;56125;52.242;4.756;2024-03-08T03:25:40;8.63;;;5.43;;
69053;SDS011;56125;52.242;4.756;2024-03-08T03:30:42;10.10;;;5.83;;
69053;SDS011;56125;52.242;4.756;2024-03-08T03:35:43;9.82;;;5.93;;
69053;SDS011;56125;52.242;4.756;2024-03-08T03:40:44;9.93;;;5.87;;
69053;SDS011;56125;52.242;4.756;2024-03-08T03:45:46;9.60;;;5.53;;
69053;SDS011;56125;52.242;4.756;2024-03-08T03:50:47;10.70;;;5.37;;
69053;SDS011;56125;52.242;4.756;2024-03-08T03:55:50;7.78;;;5.43;;
69053;SDS011;56125;52.242;4.756;2024-03-08T04:00:51;9.07;;;5.80;;
69053;SDS011;56125;52.242;4.756;2024-03-08T04:05:52;8.40;;;5.35;;
69053;SDS011;56125;52.242;4.756;2024-03-08T04:10:54;9.23;;;5.27;;
69053;SDS011;56125;52.242;4.756;2024-03-08T04:15:55;9.25;;;5.75;;
69053;SDS011;56125;52.242;4.756;2024-03-08T04:20:56;8.73;;;5.50;;
69053;SDS011;56125;52.242;4.756;2024-03-08T04:25:57;10.30;;;5.38;;
69053;SDS011;56125;52.242;4.756;2024-03-08T04:30:58;10.07;;;5.53;;
69053;SDS011;56125;52.242;4.756;2024-03-08T04:36:01;10.85;;;6.25;;
69053;SDS011;56125;52.242;4.756;2024-03-08T04:41:04;8.97;;;5.83;;
69053;SDS011;56125;52.242;4.756;2024-03-08T04:46:05;11.07;;;6.22;;
69053;SDS011;56125;52.242;4.756;2024-03-08T04:51:06;9.13;;;5.53;;
69053;SDS011;56125;52.242;4.756;2024-03-08T04:56:07;8.13;;;5.55;;
69053;SDS011;56125;52.242;4.756;2024-03-08T05:01:09;8.60;;;5.47;;
69053;SDS011;56125;52.242;4.756;2024-03-08T05:06:11;7.93;;;5.28;;
69053;SDS011;56125;52.242;4.756;2024-03-08T05:11:12;9.63;;;5.80;;
69053;SDS011;56125;52.242;4.756;2024-03-08T05:16:15;9.32;;;5.53;;
69053;SDS011;56125;52.242;4.756;2024-03-08T05:21:16;8.83;;;5.30;;
69053;SDS011;56125;52.242;4.756;2024-03-08T05:26:20;8.70;;;5.70;;
69053;SDS011;56125;52.242;4.756;2024-03-08T05:31:22;9.47;;;5.90;;
69053;SDS011;56125;52.242;4.756;2024-03-08T05:36:23;9.07;;;5.18;;
69053;SDS011;56125;52.242;4.756;2024-03-08T05:41:25;9.90;;;5.80;;
69053;SDS011;56125;52.242;4.756;2024-03-08T05:46:26;9.80;;;5.78;;
69053;SDS011;56125;52.242;4.756;2024-03-08T05:51:27;10.20;;;5.67;;
69053;SDS011;56125;52.242;4.756;2024-03-08T05:56:28;9.75;;;6.07;;
69053;SDS011;56125;52.242;4.756;2024-03-08T06:01:30;9.43;;;5.80;;
69053;SDS011;56125;52.242;4.756;2024-03-08T06:06:36;10.35;;;5.88;;
69053;SDS011;56125;52.242;4.756;2024-03-08T06:11:38;10.17;;;6.83;;
69053;SDS011;56125;52.242;4.756;2024-03-08T06:16:39;12.43;;;6.38;;
69053;SDS011;56125;52.242;4.756;2024-03-08T06:21:40;9.23;;;5.83;;
69053;SDS011;56125;52.242;4.756;2024-03-08T06:26:41;16.90;;;6.13;;
69053;SDS011;56125;52.242;4.756;2024-03-08T06:31:43;9.93;;;6.20;;
69053;SDS011;56125;52.242;4.756;2024-03-08T06:36:44;10.05;;;6.28;;
69053;SDS011;56125;52.242;4.756;2024-03-08T06:41:45;10.77;;;6.30;;
69053;SDS011;56125;52.242;4.756;2024-03-08T06:46:46;10.32;;;5.93;;
69053;SDS011;56125;52.242;4.756;2024-03-08T06:51:48;10.70;;;6.20;;
69053;SDS011;56125;52.242;4.756;2024-03-08T06:56:49;10.63;;;6.10;;
69053;SDS011;56125;52.242;4.756;2024-03-08T07:01:51;11.90;;;6.57;;
69053;SDS011;56125;52.242;4.756;2024-03-08T07:06:54;9.50;;;5.68;;
69053;SDS011;56125;52.242;4.756;2024-03-08T07:11:58;8.43;;;5.83;;
69053;SDS011;56125;52.242;4.756;2024-03-08T07:16:59;11.07;;;5.90;;
69053;SDS011;56125;52.242;4.756;2024-03-08T07:22:01;10.20;;;6.00;;
69053;SDS011;56125;52.242;4.756;2024-03-08T07:27:04;10.75;;;6.05;;
69053;SDS011;56125;52.242;4.756;2024-03-08T07:32:05;8.70;;;5.70;;
69053;SDS011;56125;52.242;4.756;2024-03-08T07:37:21;8.25;;;5.90;;
69053;SDS011;56125;52.242;4.756;2024-03-08T07:42:22;11.00;;;5.43;;
69053;SDS011;56125;52.242;4.756;2024-03-08T07:47:23;9.57;;;5.68;;
69053;SDS011;56125;52.242;4.756;2024-03-08T07:52:24;10.00;;;5.77;;
69053;SDS011;56125;52.242;4.756;2024-03-08T07:57:26;9.35;;;5.82;;
69053;SDS011;56125;52.242;4.756;2024-03-08T08:02:28;9.73;;;5.50;;
69053;SDS011;56125;52.242;4.756;2024-03-08T08:07:29;8.25;;;5.68;;
69053;SDS011;56125;52.242;4.756;2024-03-08T08:12:30;8.63;;;5.63;;
69053;SDS011;56125;52.242;4.756;2024-03-08T08:17:31;11.85;;;5.85;;
69053;SDS011;56125;52.242;4.756;2024-03-08T08:22:32;11.60;;;5.87;;
69053;SDS011;56125;52.242;4.756;2024-03-08T08:27:33;9.95;;;5.55;;
69053;SDS011;56125;52.242;4.756;2024-03-08T08:32:37;13.57;;;5.73;;
69053;SDS011;56125;52.242;4.756;2024-03-08T08:37:42;9.07;;;5.70;;
69053;SDS011;56125;52.242;4.756;2024-03-08T08:42:44;10.43;;;5.77;;
69053;SDS011;56125;52.242;4.756;2024-03-08T08:47:49;9.63;;;5.78;;
69053;SDS011;56125;52.242;4.756;2024-03-08T08:52:50;8.17;;;5.70;;
69053;SDS011;56125;52.242;4.756;2024-03-08T08:57:51;10.90;;;5.65;;
69053;SDS011;56125;52.242;4.756;2024-03-08T09:02:53;9.00;;;5.70;;
69053;SDS011;56125;52.242;4.756;2024-03-08T09:07:55;10.30;;;6.10;;
69053;SDS011;56125;52.242;4.756;2024-03-08T09:12:56;10.07;;;6.07;;
69053;SDS011;56125;52.242;4.756;2024-03-08T09:17:58;8.50;;;5.63;;
69053;SDS011;56125;52.242;4.756;2024-03-08T09:22:59;10.43;;;5.80;;
69053;SDS011;56125;52.242;4.756;2024-03-08T09:28:00;10.65;;;5.93;;
69053;SDS011;56125;52.242;4.756;2024-03-08T09:33:01;8.07;;;5.47;;
69053;SDS011;56125;52.242;4.756;2024-03-08T09:38:02;10.18;;;6.00;;
69053;SDS011;56125;52.242;4.756;2024-03-08T09:43:05;8.20;;;5.70;;
69053;SDS011;56125;52.242;4.756;2024-03-08T09:48:10;8.90;;;5.85;;
69053;SDS011;56125;52.242;4.756;2024-03-08T09:53:14;8.27;;;5.80;;
69053;SDS011;56125;52.242;4.756;2024-03-08T09:58:17;8.25;;;5.50;;
69053;SDS011;56125;52.242;4.756;2024-03-08T10:03:33;9.93;;;5.77;;
69053;SDS011;56125;52.242;4.756;2024-03-08T10:08:35;7.97;;;5.30;;
69053;SDS011;56125;52.242;4.756;2024-03-08T10:13:37;9.07;;;5.10;;
69053;SDS011;56125;52.242;4.756;2024-03-08T10:18:38;8.43;;;6.03;;
69053;SDS011;56125;52.242;4.756;2024-03-08T10:23:39;11.40;;;6.57;;
69053;SDS011;56125;52.242;4.756;2024-03-08T10:28:41;11.35;;;6.70;;
69053;SDS011;56125;52.242;4.756;2024-03-08T10:33:45;10.20;;;6.87;;
69053;SDS011;56125;52.242;4.756;2024-03-08T10:38:47;12.32;;;6.68;;
69053;SDS011;56125;52.242;4.756;2024-03-08T10:49:33;10.15;;;6.40;;
69053;SDS011;56125;52.242;4.756;2024-03-08T10:54:39;13.03;;;7.13;;
69053;SDS011;56125;52.242;4.756;2024-03-08T10:59:43;10.40;;;5.93;;
69053;SDS011;56125;52.242;4.756;2024-03-08T11:04:50;10.30;;;6.63;;
69053;SDS011;56125;52.242;4.756;2024-03-08T11:09:51;8.43;;;5.60;;
69053;SDS011;56125;52.242;4.756;2024-03-08T11:14:53;11.27;;;7.40;;
69053;SDS011;56125;52.242;4.756;2024-03-08T11:19:56;8.48;;;5.28;;
69053;SDS011;56125;52.242;4.756;2024-03-08T11:25:02;9.77;;;6.47;;
69053;SDS011;56125;52.242;4.756;2024-03-08T11:30:09;12.40;;;5.95;;
69053;SDS011;56125;52.242;4.756;2024-03-08T11:35:19;9.53;;;5.80;;
69053;SDS011;56125;52.242;4.756;2024-03-08T11:40:21;8.38;;;5.60;;
69053;SDS011;56125;52.242;4.756;2024-03-08T11:45:23;11.93;;;6.57;;
69053;SDS011;56125;52.242;4.756;2024-03-08T11:50:24;8.38;;;5.00;;
69053;SDS011;56125;52.242;4.756;2024-03-08T11:55:25;8.20;;;5.50;;
69053;SDS011;56125;52.242;4.756;2024-03-08T12:00:26;9.80;;;5.65;;
69053;SDS011;56125;52.242;4.756;2024-03-08T12:05:31;7.90;;;5.20;;
69053;SDS011;56125;52.242;4.756;2024-03-08T12:10:34;12.73;;;5.25;;
69053;SDS011;56125;52.242;4.756;2024-03-08T12:15:35;9.43;;;5.70;;
69053;SDS011;56125;52.242;4.756;2024-03-08T12:20:36;9.18;;;5.18;;
69053;SDS011;56125;52.242;4.756;2024-03-08T12:25:39;9.10;;;5.23;;
69053;SDS011;56125;52.242;4.756;2024-03-08T12:30:45;8.68;;;5.43;;
69053;SDS011;56125;52.242;4.756;2024-03-08T12:35:51;8.03;;;5.17;;
69053;SDS011;56125;52.242;4.756;2024-03-08T12:41:00;8.57;;;5.63;;
69053;SDS011;56125;52.242;4.756;2024-03-08T12:46:05;9.03;;;5.50;;
69053;SDS011;56125;52.242;4.756;2024-03-08T12:51:09;8.90;;;5.70;;
69053;SDS011;56125;52.242;4.756;2024-03-08T12:56:11;9.53;;;5.60;;
69053;SDS011;56125;52.242;4.756;2024-03-08T13:01:12;7.97;;;5.03;;
69053;SDS011;56125;52.242;4.756;2024-03-08T13:06:14;10.93;;;5.50;;
69053;SDS011;56125;52.242;4.756;2024-03-08T13:11:15;8.73;;;5.22;;
69053;SDS011;56125;52.242;4.756;2024-03-08T13:16:17;8.60;;;5.30;;
69053;SDS011;56125;52.242;4.756;2024-03-08T13:21:19;8.15;;;4.78;;
69053;SDS011;56125;52.242;4.756;2024-03-08T13:26:24;8.07;;;5.07;;
69053;SDS011;56125;52.242;4.756;2024-03-08T13:31:26;8.25;;;5.55;;
69053;SDS011;56125;52.242;4.756;2024-03-08T13:36:27;8.13;;;5.33;;
69053;SDS011;56125;52.242;4.756;2024-03-08T13:41:39;6.78;;;4.32;;
69053;SDS011;56125;52.242;4.756;2024-03-08T13:46:41;8.27;;;5.10;;
69053;SDS011;56125;52.242;4.756;2024-03-08T13:51:42;8.15;;;5.47;;
69053;SDS011;56125;52.242;4.756;2024-03-08T13:56:43;7.97;;;5.23;;
69053;SDS011;56125;52.242;4.756;2024-03-08T14:01:45;6.88;;;4.53;;
69053;SDS011;56125;52.242;4.756;2024-03-08T14:06:46;7.53;;;4.73;;
69053;SDS011;56125;52.242;4.756;2024-03-08T14:11:47;8.20;;;4.78;;
69053;SDS011;56125;52.242;4.756;2024-03-08T14:16:49;16.37;;;5.87;;
69053;SDS011;56125;52.242;4.756;2024-03-08T14:21:54;15.73;;;6.50;;
69053;SDS011;56125;52.242;4.756;2024-03-08T14:26:55;16.40;;;6.30;;
69053;SDS011;56125;52.242;4.756;2024-03-08T14:31:58;20.48;;;6.68;;
69053;SDS011;56125;52.242;4.756;2024-03-08T14:37:00;34.13;;;9.10;;
69053;SDS011;56125;52.242;4.756;2024-03-08T14:42:01;35.78;;;8.63;;
69053;SDS011;56125;52.242;4.756;2024-03-08T14:47:03;38.67;;;9.03;;
69053;SDS011;56125;52.242;4.756;2024-03-08T14:52:06;35.60;;;9.25;;
69053;SDS011;56125;52.242;4.756;2024-03-08T14:57:27;55.00;;;11.50;;
69053;SDS011;56125;52.242;4.756;2024-03-08T15:02:28;44.65;;;10.13;;
69053;SDS011;56125;52.242;4.756;2024-03-08T15:07:29;48.40;;;11.33;;
69053;SDS011;56125;52.242;4.756;2024-03-08T15:12:31;49.67;;;10.65;;
69053;SDS011;56125;52.242;4.756;2024-03-08T15:17:32;44.83;;;10.63;;
69053;SDS011;56125;52.242;4.756;2024-03-08T15:22:33;47.30;;;10.48;;
69053;SDS011;56125;52.242;4.756;2024-03-08T15:27:34;42.13;;;10.40;;
69053;SDS011;56125;52.242;4.756;2024-03-08T15:32:39;41.17;;;10.60;;
69053;SDS011;56125;52.242;4.756;2024-03-08T15:37:45;38.47;;;9.47;;
69053;SDS011;56125;52.242;4.756;2024-03-08T15:42:55;31.15;;;9.35;;
69053;SDS011;56125;52.242;4.756;2024-03-08T15:47:57;36.23;;;10.10;;
69053;SDS011;56125;52.242;4.756;2024-03-08T15:52:58;40.17;;;9.93;;
69053;SDS011;56125;52.242;4.756;2024-03-08T15:57:59;28.97;;;9.17;;
69053;SDS011;56125;52.242;4.756;2024-03-08T16:03:04;33.13;;;9.68;;
69053;SDS011;56125;52.242;4.756;2024-03-08T16:08:12;29.50;;;8.67;;
69053;SDS011;56125;52.242;4.756;2024-03-08T16:13:18;26.55;;;8.63;;
69053;SDS011;56125;52.242;4.756;2024-03-08T16:18:20;24.40;;;8.47;;
69053;SDS011;56125;52.242;4.756;2024-03-08T16:23:23;23.13;;;7.85;;
69053;SDS011;56125;52.242;4.756;2024-03-08T16:28:25;22.73;;;7.90;;
69053;SDS011;56125;52.242;4.756;2024-03-08T16:33:35;20.85;;;8.02;;
69053;SDS011;56125;52.242;4.756;2024-03-08T16:38:36;19.83;;;7.10;;
69053;SDS011;56125;52.242;4.756;2024-03-08T16:43:38;23.40;;;7.97;;
69053;SDS011;56125;52.242;4.756;2024-03-08T16:48:39;19.50;;;7.33;;
69053;SDS011;56125;52.242;4.756;2024-03-08T16:53:41;22.58;;;7.90;;
69053;SDS011;56125;52.242;4.756;2024-03-08T16:58:43;19.13;;;7.67;;
69053;SDS011;56125;52.242;4.756;2024-03-08T17:03:45;20.60;;;7.53;;
69053;SDS011;56125;52.242;4.756;2024-03-08T17:08:46;16.73;;;6.90;;
69053;SDS011;56125;52.242;4.756;2024-03-08T17:13:48;15.90;;;6.43;;
69053;SDS011;56125;52.242;4.756;2024-03-08T17:18:49;14.00;;;6.70;;
69053;SDS011;56125;52.242;4.756;2024-03-08T17:23:50;17.58;;;6.88;;
69053;SDS011;56125;52.242;4.756;2024-03-08T17:28:51;15.13;;;6.27;;
69053;SDS011;56125;52.242;4.756;2024-03-08T17:33:54;13.02;;;6.75;;
69053;SDS011;56125;52.242;4.756;2024-03-08T17:38:56;14.30;;;5.80;;
69053;SDS011;56125;52.242;4.756;2024-03-08T17:43:58;12.95;;;5.80;;
69053;SDS011;56125;52.242;4.756;2024-03-08T17:48:59;12.60;;;5.60;;
69053;SDS011;56125;52.242;4.756;2024-03-08T17:54:00;17.20;;;6.15;;
69053;SDS011;56125;52.242;4.756;2024-03-08T17:59:03;12.03;;;5.87;;
69053;SDS011;56125;52.242;4.756;2024-03-08T18:04:08;13.23;;;6.13;;
69053;SDS011;56125;52.242;4.756;2024-03-08T18:09:11;13.17;;;6.40;;
69053;SDS011;56125;52.242;4.756;2024-03-08T18:14:13;10.98;;;5.72;;
69053;SDS011;56125;52.242;4.756;2024-03-08T18:19:14;18.27;;;6.23;;
69053;SDS011;56125;52.242;4.756;2024-03-08T18:24:19;11.80;;;6.20;;
69053;SDS011;56125;52.242;4.756;2024-03-08T18:29:21;12.70;;;6.20;;
69053;SDS011;56125;52.242;4.756;2024-03-08T18:34:22;11.55;;;5.90;;
69053;SDS011;56125;52.242;4.756;2024-03-08T18:39:23;10.33;;;5.93;;
69053;SDS011;56125;52.242;4.756;2024-03-08T18:44:27;11.15;;;5.90;;
69053;SDS011;56125;52.242;4.756;2024-03-08T18:49:28;12.20;;;6.33;;
69053;SDS011;56125;52.242;4.756;2024-03-08T18:54:30;15.63;;;6.00;;
69053;SDS011;56125;52.242;4.756;2024-03-08T18:59:31;10.53;;;5.63;;
69053;SDS011;56125;52.242;4.756;2024-03-08T19:04:32;10.85;;;6.20;;
69053;SDS011;56125;52.242;4.756;2024-03-08T19:09:33;10.57;;;5.80;;
69053;SDS011;56125;52.242;4.756;2024-03-08T19:14:34;11.05;;;6.22;;
69053;SDS011;56125;52.242;4.756;2024-03-08T19:19:38;9.33;;;5.67;;
69053;SDS011;56125;52.242;4.756;2024-03-08T19:24:39;10.18;;;5.90;;
69053;SDS011;56125;52.242;4.756;2024-03-08T19:29:40;10.43;;;6.20;;
69053;SDS011;56125;52.242;4.756;2024-03-08T19:34:41;8.73;;;5.60;;
69053;SDS011;56125;52.242;4.756;2024-03-08T19:39:42;7.73;;;5.17;;
69053;SDS011;56125;52.242;4.756;2024-03-08T19:44:44;7.65;;;5.68;;
69053;SDS011;56125;52.242;4.756;2024-03-08T19:49:49;10.67;;;6.30;;
69053;SDS011;56125;52.242;4.756;2024-03-08T19:54:50;9.48;;;5.80;;
69053;SDS011;56125;52.242;4.756;2024-03-08T19:59:51;9.30;;;5.70;;
69053;SDS011;56125;52.242;4.756;2024-03-08T20:04:53;10.55;;;5.85;;
69053;SDS011;56125;52.242;4.756;2024-03-08T20:09:56;9.73;;;6.03;;
69053;SDS011;56125;52.242;4.756;2024-03-08T20:14:58;9.55;;;6.07;;
69053;SDS011;56125;52.242;4.756;2024-03-08T20:20:00;12.27;;;6.07;;
69053;SDS011;56125;52.242;4.756;2024-03-08T20:25:01;9.55;;;5.85;;
69053;SDS011;56125;52.242;4.756;2024-03-08T20:30:02;9.30;;;5.97;;
69053;SDS011;56125;52.242;4.756;2024-03-08T20:35:04;10.35;;;6.05;;
69053;SDS011;56125;52.242;4.756;2024-03-08T20:40:05;10.67;;;6.07;;
69053;SDS011;56125;52.242;4.756;2024-03-08T20:45:07;9.98;;;5.97;;
69053;SDS011;56125;52.242;4.756;2024-03-08T20:50:08;11.13;;;5.83;;
69053;SDS011;56125;52.242;4.756;2024-03-08T20:55:13;9.95;;;6.03;;
69053;SDS011;56125;52.242;4.756;2024-03-08T21:00:20;10.47;;;6.00;;
69053;SDS011;56125;52.242;4.756;2024-03-08T21:05:40;11.07;;;6.25;;
69053;SDS011;56125;52.242;4.756;2024-03-08T21:10:42;10.93;;;6.13;;
69053;SDS011;56125;52.242;4.756;2024-03-08T21:15:45;9.75;;;5.88;;
69053;SDS011;56125;52.242;4.756;2024-03-08T21:20:47;9.20;;;6.03;;
69053;SDS011;56125;52.242;4.756;2024-03-08T21:25:48;9.60;;;6.13;;
69053;SDS011;56125;52.242;4.756;2024-03-08T21:30:49;9.77;;;6.77;;
69053;SDS011;56125;52.242;4.756;2024-03-08T21:35:51;12.88;;;6.90;;
69053;SDS011;56125;52.242;4.756;2024-03-08T21:40:52;10.50;;;6.33;;
69053;SDS011;56125;52.242;4.756;2024-03-08T21:45:54;11.73;;;6.60;;
69053;SDS011;56125;52.242;4.756;2024-03-08T21:50:55;9.30;;;6.20;;
69053;SDS011;56125;52.242;4.756;2024-03-08T21:55:56;10.27;;;7.00;;
69053;SDS011;56125;52.242;4.756;2024-03-08T22:00:57;9.40;;;6.23;;
69053;SDS011;56125;52.242;4.756;2024-03-08T22:05:58;11.63;;;6.68;;
69053;SDS011;56125;52.242;4.756;2024-03-08T22:10:59;9.67;;;6.57;;
69053;SDS011;56125;52.242;4.756;2024-03-08T22:16:01;10.15;;;6.00;;
69053;SDS011;56125;52.242;4.756;2024-03-08T22:21:04;11.47;;;6.93;;
69053;SDS011;56125;52.242;4.756;2024-03-08T22:26:07;11.75;;;7.18;;
69053;SDS011;56125;52.242;4.756;2024-03-08T22:31:12;12.20;;;7.00;;
69053;SDS011;56125;52.242;4.756;2024-03-08T22:36:13;10.50;;;6.40;;
69053;SDS011;56125;52.242;4.756;2024-03-08T22:41:16;10.80;;;6.90;;
69053;SDS011;56125;52.242;4.756;2024-03-08T22:46:17;11.80;;;7.10;;
69053;SDS011;56125;52.242;4.756;2024-03-08T22:51:18;11.10;;;6.90;;
69053;SDS011;56125;52.242;4.756;2024-03-08T22:56:25;10.93;;;7.22;;
69053;SDS011;56125;52.242;4.756;2024-03-08T23:01:26;10.70;;;7.00;;
69053;SDS011;56125;52.242;4.756;2024-03-08T23:06:33;14.00;;;6.60;;
69053;SDS011;56125;52.242;4.756;2024-03-08T23:11:36;11.70;;;6.93;;
69053;SDS011;56125;52.242;4.756;2024-03-08T23:16:37;11.10;;;6.72;;
69053;SDS011;56125;52.242;4.756;2024-03-08T23:21:39;10.57;;;6.70;;
69053;SDS011;56125;52.242;4.756;2024-03-08T23:26:40;11.02;;;7.25;;
69053;SDS011;56125;52.242;4.756;2024-03-08T23:31:42;11.80;;;6.70;;
69053;SDS011;56125;52.242;4.756;2024-03-08T23:36:45;10.05;;;6.38;;
69053;SDS011;56125;52.242;4.756;2024-03-08T23:41:48;11.83;;;6.40;;
69053;SDS011;56125;52.242;4.756;2024-03-08T23:46:50;11.07;;;6.70;;
69053;SDS011;56125;52.242;4.756;2024-03-08T23:51:51;14.60;;;6.53;;
69053;SDS011;56125;52.242;4.756;2024-03-08T23:56:52;12.93;;;6.88;;
